Angelina Amoretti — IBLF — position and weather

sailwx.info

Track history (hours):
 
Tides and Currents Weather Stations Pressure Air Temp Water Temp Dewpoint Dewpoint Depression Visibility Wind Speed Wind Dir Waves Ship Positions

Angelina Amoretti

Last reported at 2018-Feb-19 20:00 UTC. Time now 2018-Feb-19 20:18 UTC.
Position N 40°28' E 017°12'.

Length 162 m; draft 6.8 m.

Type: Ship (hazmat cat A). MMSI: 247100400.

Date/timePositionNaut miles runAvg speedWind from/ knotsBaromVisibWave heightAir tempDewpointWater temp
2018-Feb-19 20:00N 40°28' E 017°12'0 0.0
2018-Feb-19 19:30N 40°28' E 017°12'0 0.0
2018-Feb-19 19:00N 40°28' E 017°12'0 0.0
2018-Feb-19 18:30N 40°28' E 017°12'0 0.1
2018-Feb-19 18:00N 40°28' E 017°12'0 0.2
2018-Feb-19 17:30N 40°28' E 017°12'0 0.0
2018-Feb-19 17:00N 40°28' E 017°12'0 0.1
2018-Feb-19 16:27N 40°28' E 017°12'0 0.0
2018-Feb-19 16:00N 40°28' E 017°12'0 0.0
2018-Feb-19 15:30N 40°28' E 017°12'0 0.0
2018-Feb-19 14:55N 40°28' E 017°12'0 0.0
2018-Feb-19 14:30N 40°28' E 017°12'0 0.0
2018-Feb-19 14:00N 40°28' E 017°12'0 0.0
2018-Feb-19 13:30N 40°28' E 017°12'0 0.0
2018-Feb-19 13:00N 40°28' E 017°12'0 0.0
2018-Feb-19 12:30N 40°28' E 017°12'0 0.0
2018-Feb-19 12:00N 40°28' E 017°12'0 0.0
2018-Feb-19 11:30N 40°28' E 017°12'0 0.0
2018-Feb-19 11:00N 40°28' E 017°12'0 0.0
2018-Feb-19 10:30N 40°28' E 017°12'0 0.0
2018-Feb-19 09:59N 40°28' E 017°12'0 0.0
2018-Feb-19 09:30N 40°28' E 017°12'0 0.1
2018-Feb-19 09:00N 40°28' E 017°12'0 0.0
2018-Feb-19 08:30N 40°28' E 017°12'0 0.1
2018-Feb-19 08:00N 40°28' E 017°12'0 0.1
2018-Feb-19 07:30N 40°28' E 017°12'0 0.7
2018-Feb-19 07:00N 40°27' E 017°12'4 7.6
2018-Feb-19 06:30N 40°25' E 017°09'3 6.3
2018-Feb-19 06:01N 40°22' E 017°06'1 1.0
2018-Feb-19 05:29N 40°22' E 017°07'0 1.0
2018-Feb-19 05:00N 40°23' E 017°07'0 0.5
2018-Feb-19 04:30N 40°23' E 017°07'3 6.1
2018-Feb-19 04:00N 40°20' E 017°07'5 9.5
2018-Feb-19 03:31N 40°15' E 017°08'510.6
2018-Feb-19 03:00N 40°10' E 017°08'612.0
2018-Feb-19 02:30N 40°04' E 017°09'611.8
2018-Feb-19 02:00N 39°58' E 017°10'611.5
2018-Feb-19 01:30N 39°52' E 017°11'611.6
2018-Feb-19 00:59N 39°46' E 017°12'611.7
2018-Feb-19 00:30N 39°41' E 017°13'13311.4
2018-Feb-18 12:50N 37°42' E 015°54'34 0.7
2018-Feb-16 13:50N 37°19' E 015°25'613.8
2018-Feb-16 13:26N 37°22' E 015°30'813.8
2018-Feb-16 12:52N 37°28' E 015°36'513.7
2018-Feb-16 12:30N 37°32' E 015°41'713.7
2018-Feb-16 12:00N 37°37' E 015°47'713.5
2018-Feb-16 11:31N 37°42' E 015°52'713.4
2018-Feb-16 10:59N 37°47' E 015°59'10912.4
2018-Feb-16 02:11N 39°12' E 017°26'15 8.7
2018-Feb-16 00:28N 39°26' E 017°28'7 8.6
2018-Feb-15 23:37N 39°34' E 017°28'3 7.6
2018-Feb-15 23:11N 39°37' E 017°28'1 7.4
2018-Feb-15 23:00N 39°38' E 017°29'4 7.6
2018-Feb-15 22:30N 39°42' E 017°29'4 7.6
2018-Feb-15 22:00N 39°46' E 017°29'4 7.5
2018-Feb-15 21:30N 39°50' E 017°29'4 7.4
2018-Feb-15 21:00N 39°53' E 017°30'4 7.3
2018-Feb-15 20:30N 39°57' E 017°30'4 7.5
2018-Feb-15 20:00N 40°01' E 017°30'4 7.8
2018-Feb-15 19:30N 40°05' E 017°30'3 7.0
2018-Feb-15 19:00N 40°08' E 017°32'2 4.5
2018-Feb-15 18:30N 40°09' E 017°35'3 6.1
2018-Feb-15 18:00N 40°06' E 017°37'3 5.6
2018-Feb-15 17:30N 40°04' E 017°40'3 5.4
2018-Feb-15 17:00N 40°02' E 017°42'2 4.9
2018-Feb-15 16:30N 39°60' E 017°44'2 5.0
2018-Feb-15 16:00N 39°58' E 017°46'2 4.8
2018-Feb-15 15:30N 39°56' E 017°48'2 4.8
2018-Feb-15 15:00N 39°54' E 017°50'2 4.9
2018-Feb-15 14:30N 39°53' E 017°52'0 0.4
2018-Feb-15 14:00N 39°52' E 017°52'4 7.5
2018-Feb-15 13:30N 39°56' E 017°49'4 7.8
2018-Feb-15 13:00N 39°59' E 017°46'4 7.9
2018-Feb-15 12:30N 40°02' E 017°43'2 3.4
2018-Feb-15 12:00N 40°03' E 017°42'2 4.8
2018-Feb-15 11:30N 40°01' E 017°44'2 4.9
2018-Feb-15 11:00N 39°59' E 017°45'3 5.2
2018-Feb-15 10:30N 39°57' E 017°47'3 5.4
2018-Feb-15 10:00N 39°55' E 017°49'3 5.1
2018-Feb-15 09:27N 39°52' E 017°51'29 5.7
2018-Feb-15 04:16N 39°46' E 018°29'312.4
2018-Feb-15 04:00N 39°49' E 018°30'612.3
2018-Feb-15 03:29N 39°55' E 018°33'612.4
2018-Feb-15 03:01N 40°00' E 018°36'612.1
2018-Feb-15 02:30N 40°06' E 018°37'  
2018-Feb-11 04:28N 40°02' E 018°37'4 8.2
2018-Feb-11 04:00N 39°58' E 018°36'4 8.4
2018-Feb-11 03:30N 39°54' E 018°33'4 8.6
2018-Feb-11 03:00N 39°50' E 018°31'32 6.7
2018-Feb-10 22:12N 39°51' E 017°49'2 7.3
2018-Feb-10 21:59N 39°52' E 017°48'4 7.5
2018-Feb-10 21:30N 39°55' E 017°45'4 7.6
2018-Feb-10 21:00N 39°58' E 017°41'4 7.4
2018-Feb-10 20:30N 40°00' E 017°38'4 7.7
2018-Feb-10 20:00N 40°03' E 017°34'4 7.8
2018-Feb-10 19:30N 40°06' E 017°31'4 7.7
2018-Feb-10 19:00N 40°09' E 017°27'4 7.2
2018-Feb-10 18:30N 40°11' E 017°23'4 7.2
2018-Feb-10 18:00N 40°14' E 017°20'4 7.5
2018-Feb-10 17:30N 40°16' E 017°17'4 7.8
2018-Feb-10 17:00N 40°19' E 017°13'4 8.1
2018-Feb-10 16:30N 40°22' E 017°09'3 6.0
2018-Feb-10 16:00N 40°25' E 017°08'4 7.7
2018-Feb-10 15:30N 40°28' E 017°12'0 0.2
2018-Feb-10 14:55N 40°28' E 017°12'0 0.1
2018-Feb-10 14:25N 40°28' E 017°12'0 0.1
2018-Feb-10 13:55N 40°28' E 017°12'0 0.0
2018-Feb-10 13:28N 40°28' E 017°12'0 0.1
2018-Feb-10 12:58N 40°28' E 017°12'0 0.0
2018-Feb-10 12:25N 40°28' E 017°12'0 0.1
2018-Feb-10 11:58N 40°28' E 017°12'0 0.0
2018-Feb-10 11:28N 40°28' E 017°12'0 0.0
2018-Feb-10 10:55N 40°28' E 017°12'0 0.1
2018-Feb-10 10:25N 40°28' E 017°12'0 0.0
2018-Feb-10 09:55N 40°28' E 017°12'0 0.0
2018-Feb-10 09:25N 40°28' E 017°12'0 0.0
2018-Feb-10 08:55N 40°28' E 017°12'0 0.0
2018-Feb-10 08:25N 40°28' E 017°12'0 0.0
2018-Feb-10 07:55N 40°28' E 017°12'0 0.0
2018-Feb-10 07:25N 40°28' E 017°12'0 0.1
2018-Feb-10 06:58N 40°28' E 017°12'0 0.0
2018-Feb-10 06:28N 40°28' E 017°12'0 0.1
2018-Feb-10 05:58N 40°28' E 017°12'0 0.0
2018-Feb-10 05:28N 40°28' E 017°12'0 0.0
2018-Feb-10 04:58N 40°28' E 017°12'0 0.0
2018-Feb-10 04:28N 40°28' E 017°12'0 0.0
2018-Feb-10 03:55N 40°28' E 017°12'0 0.0
2018-Feb-10 03:28N 40°28' E 017°12'0 0.1
2018-Feb-10 02:58N 40°28' E 017°12'0 0.0
2018-Feb-10 02:28N 40°28' E 017°12'0 0.1
2018-Feb-10 01:58N 40°28' E 017°12'0 0.1
2018-Feb-10 01:28N 40°28' E 017°12'0 0.0
2018-Feb-10 00:58N 40°28' E 017°12'0 0.0
2018-Feb-10 00:28N 40°28' E 017°12'0 0.0
2018-Feb-09 23:58N 40°28' E 017°12'0 0.1
2018-Feb-09 23:28N 40°28' E 017°12'0 0.0
2018-Feb-09 22:58N 40°28' E 017°12'0 0.1
2018-Feb-09 22:43N 40°28' E 017°12'0 0.7
2018-Feb-09 22:00N 40°28' E 017°12'  
Track history (hours):
 
Tides and Currents Weather Stations Pressure Air Temp Water Temp Dewpoint Dewpoint Depression Visibility Wind Speed Wind Dir Waves Ship Positions

Angelina Amoretti

Last reported at 2018-Feb-19 20:00 UTC. Time now 2018-Feb-19 20:18 UTC.
Position N 40°28' E 017°12'.

Length 162 m; draft 6.8 m.

Type: Ship (hazmat cat A). MMSI: 247100400.

Date/timePositionNaut miles runAvg speedWind from/ knotsBaromVisibWave heightAir tempDewpointWater temp
2018-Feb-19 20:00N 40°28' E 017°12'0 0.0
2018-Feb-19 19:30N 40°28' E 017°12'0 0.0
2018-Feb-19 19:00N 40°28' E 017°12'0 0.0
2018-Feb-19 18:30N 40°28' E 017°12'0 0.1
2018-Feb-19 18:00N 40°28' E 017°12'0 0.2
2018-Feb-19 17:30N 40°28' E 017°12'0 0.0
2018-Feb-19 17:00N 40°28' E 017°12'0 0.1
2018-Feb-19 16:27N 40°28' E 017°12'0 0.0
2018-Feb-19 16:00N 40°28' E 017°12'0 0.0
2018-Feb-19 15:30N 40°28' E 017°12'0 0.0
2018-Feb-19 14:55N 40°28' E 017°12'0 0.0
2018-Feb-19 14:30N 40°28' E 017°12'0 0.0
2018-Feb-19 14:00N 40°28' E 017°12'0 0.0
2018-Feb-19 13:30N 40°28' E 017°12'0 0.0
2018-Feb-19 13:00N 40°28' E 017°12'0 0.0
2018-Feb-19 12:30N 40°28' E 017°12'0 0.0
2018-Feb-19 12:00N 40°28' E 017°12'0 0.0
2018-Feb-19 11:30N 40°28' E 017°12'0 0.0
2018-Feb-19 11:00N 40°28' E 017°12'0 0.0
2018-Feb-19 10:30N 40°28' E 017°12'0 0.0
2018-Feb-19 09:59N 40°28' E 017°12'0 0.0
2018-Feb-19 09:30N 40°28' E 017°12'0 0.1
2018-Feb-19 09:00N 40°28' E 017°12'0 0.0
2018-Feb-19 08:30N 40°28' E 017°12'0 0.1
2018-Feb-19 08:00N 40°28' E 017°12'0 0.1
2018-Feb-19 07:30N 40°28' E 017°12'0 0.7
2018-Feb-19 07:00N 40°27' E 017°12'4 7.6
2018-Feb-19 06:30N 40°25' E 017°09'3 6.3
2018-Feb-19 06:01N 40°22' E 017°06'1 1.0
2018-Feb-19 05:29N 40°22' E 017°07'0 1.0
2018-Feb-19 05:00N 40°23' E 017°07'0 0.5
2018-Feb-19 04:30N 40°23' E 017°07'3 6.1
2018-Feb-19 04:00N 40°20' E 017°07'5 9.5
2018-Feb-19 03:31N 40°15' E 017°08'510.6
2018-Feb-19 03:00N 40°10' E 017°08'612.0
2018-Feb-19 02:30N 40°04' E 017°09'611.8
2018-Feb-19 02:00N 39°58' E 017°10'611.5
2018-Feb-19 01:30N 39°52' E 017°11'611.6
2018-Feb-19 00:59N 39°46' E 017°12'611.7
2018-Feb-19 00:30N 39°41' E 017°13'13311.4
2018-Feb-18 12:50N 37°42' E 015°54'34 0.7
2018-Feb-16 13:50N 37°19' E 015°25'613.8
2018-Feb-16 13:26N 37°22' E 015°30'813.8
2018-Feb-16 12:52N 37°28' E 015°36'513.7
2018-Feb-16 12:30N 37°32' E 015°41'713.7
2018-Feb-16 12:00N 37°37' E 015°47'713.5
2018-Feb-16 11:31N 37°42' E 015°52'713.4
2018-Feb-16 10:59N 37°47' E 015°59'10912.4
2018-Feb-16 02:11N 39°12' E 017°26'15 8.7
2018-Feb-16 00:28N 39°26' E 017°28'7 8.6
2018-Feb-15 23:37N 39°34' E 017°28'3 7.6
2018-Feb-15 23:11N 39°37' E 017°28'1 7.4
2018-Feb-15 23:00N 39°38' E 017°29'4 7.6
2018-Feb-15 22:30N 39°42' E 017°29'4 7.6
2018-Feb-15 22:00N 39°46' E 017°29'4 7.5
2018-Feb-15 21:30N 39°50' E 017°29'4 7.4
2018-Feb-15 21:00N 39°53' E 017°30'4 7.3
2018-Feb-15 20:30N 39°57' E 017°30'4 7.5
2018-Feb-15 20:00N 40°01' E 017°30'4 7.8
2018-Feb-15 19:30N 40°05' E 017°30'3 7.0
2018-Feb-15 19:00N 40°08' E 017°32'2 4.5
2018-Feb-15 18:30N 40°09' E 017°35'3 6.1
2018-Feb-15 18:00N 40°06' E 017°37'3 5.6
2018-Feb-15 17:30N 40°04' E 017°40'3 5.4
2018-Feb-15 17:00N 40°02' E 017°42'2 4.9
2018-Feb-15 16:30N 39°60' E 017°44'2 5.0
2018-Feb-15 16:00N 39°58' E 017°46'2 4.8
2018-Feb-15 15:30N 39°56' E 017°48'2 4.8
2018-Feb-15 15:00N 39°54' E 017°50'2 4.9
2018-Feb-15 14:30N 39°53' E 017°52'0 0.4
2018-Feb-15 14:00N 39°52' E 017°52'4 7.5
2018-Feb-15 13:30N 39°56' E 017°49'4 7.8
2018-Feb-15 13:00N 39°59' E 017°46'4 7.9
2018-Feb-15 12:30N 40°02' E 017°43'2 3.4
2018-Feb-15 12:00N 40°03' E 017°42'2 4.8
2018-Feb-15 11:30N 40°01' E 017°44'2 4.9
2018-Feb-15 11:00N 39°59' E 017°45'3 5.2
2018-Feb-15 10:30N 39°57' E 017°47'3 5.4
2018-Feb-15 10:00N 39°55' E 017°49'3 5.1
2018-Feb-15 09:27N 39°52' E 017°51'29 5.7
2018-Feb-15 04:16N 39°46' E 018°29'312.4
2018-Feb-15 04:00N 39°49' E 018°30'612.3
2018-Feb-15 03:29N 39°55' E 018°33'612.4
2018-Feb-15 03:01N 40°00' E 018°36'612.1
2018-Feb-15 02:30N 40°06' E 018°37'  
2018-Feb-11 04:28N 40°02' E 018°37'4 8.2
2018-Feb-11 04:00N 39°58' E 018°36'4 8.4
2018-Feb-11 03:30N 39°54' E 018°33'4 8.6
2018-Feb-11 03:00N 39°50' E 018°31'32 6.7
2018-Feb-10 22:12N 39°51' E 017°49'2 7.3
2018-Feb-10 21:59N 39°52' E 017°48'4 7.5
2018-Feb-10 21:30N 39°55' E 017°45'4 7.6
2018-Feb-10 21:00N 39°58' E 017°41'4 7.4
2018-Feb-10 20:30N 40°00' E 017°38'4 7.7
2018-Feb-10 20:00N 40°03' E 017°34'4 7.8
2018-Feb-10 19:30N 40°06' E 017°31'4 7.7
2018-Feb-10 19:00N 40°09' E 017°27'4 7.2
2018-Feb-10 18:30N 40°11' E 017°23'4 7.2
2018-Feb-10 18:00N 40°14' E 017°20'4 7.5
2018-Feb-10 17:30N 40°16' E 017°17'4 7.8
2018-Feb-10 17:00N 40°19' E 017°13'4 8.1
2018-Feb-10 16:30N 40°22' E 017°09'3 6.0
2018-Feb-10 16:00N 40°25' E 017°08'4 7.7
2018-Feb-10 15:30N 40°28' E 017°12'0 0.2
2018-Feb-10 14:55N 40°28' E 017°12'0 0.1
2018-Feb-10 14:25N 40°28' E 017°12'0 0.1
2018-Feb-10 13:55N 40°28' E 017°12'0 0.0
2018-Feb-10 13:28N 40°28' E 017°12'0 0.1
2018-Feb-10 12:58N 40°28' E 017°12'0 0.0
2018-Feb-10 12:25N 40°28' E 017°12'0 0.1
2018-Feb-10 11:58N 40°28' E 017°12'0 0.0
2018-Feb-10 11:28N 40°28' E 017°12'0 0.0
2018-Feb-10 10:55N 40°28' E 017°12'0 0.1
2018-Feb-10 10:25N 40°28' E 017°12'0 0.0
2018-Feb-10 09:55N 40°28' E 017°12'0 0.0
2018-Feb-10 09:25N 40°28' E 017°12'0 0.0
2018-Feb-10 08:55N 40°28' E 017°12'0 0.0
2018-Feb-10 08:25N 40°28' E 017°12'0 0.0
2018-Feb-10 07:55N 40°28' E 017°12'0 0.0
2018-Feb-10 07:25N 40°28' E 017°12'0 0.1
2018-Feb-10 06:58N 40°28' E 017°12'0 0.0
2018-Feb-10 06:28N 40°28' E 017°12'0 0.1
2018-Feb-10 05:58N 40°28' E 017°12'0 0.0
2018-Feb-10 05:28N 40°28' E 017°12'0 0.0
2018-Feb-10 04:58N 40°28' E 017°12'0 0.0
2018-Feb-10 04:28N 40°28' E 017°12'0 0.0
2018-Feb-10 03:55N 40°28' E 017°12'0 0.0
2018-Feb-10 03:28N 40°28' E 017°12'0 0.1
2018-Feb-10 02:58N 40°28' E 017°12'0 0.0
2018-Feb-10 02:28N 40°28' E 017°12'0 0.1
2018-Feb-10 01:58N 40°28' E 017°12'0 0.1
2018-Feb-10 01:28N 40°28' E 017°12'0 0.0
2018-Feb-10 00:58N 40°28' E 017°12'0 0.0
2018-Feb-10 00:28N 40°28' E 017°12'0 0.0
2018-Feb-09 23:58N 40°28' E 017°12'0 0.1
2018-Feb-09 23:28N 40°28' E 017°12'0 0.0
2018-Feb-09 22:58N 40°28' E 017°12'0 0.1
2018-Feb-09 22:43N 40°28' E 017°12'0 0.7
2018-Feb-09 22:00N 40°28' E 017°12'  

Dump ship's entire track history